Flight Track Log - Related Links

Times and Time Zones

All times are in EDT time to prevent confusion due to time zone crossing. See the N825SD flight status page for this flight to view local times or setup timezone preferences in your user account.

Time Position Orientation Groundspeed Altitude Reporting Facility
EDT Latitude Longitude Course Direction KTS MPH feet Rate Location/Type
Wed 10:15:51 AM 43.9328 -76.0278 174° South 164 189 2,700  Level Boston Center
Wed 10:16:52 AM 43.8828 -76.0192 173° South 185 213 3,600 918 Climbing Boston Center
Wed 10:17:16 AM 43.8761 -76.0217 195° South 174 200 4,000 1,400 Climbing Boston Center
Wed 10:17:52 AM 43.8347 -76.0114 170° South 186 214 5,000 1,377 Climbing Boston Center
Wed 10:18:17 AM 43.8250 -76.0139 191° South 181 208 5,400 1,279 Climbing Boston Center
Wed 10:18:53 AM 43.7808 -76.0014 168° South 182 209 6,300 1,475 Climbing Boston Center
Wed 10:19:18 AM 43.7633 -76.0042 187° South 181 208 6,900 1,279 Climbing Boston Center
Wed 10:19:54 AM 43.7286 -75.9919 166° South 193 222 7,600 1,238 Climbing Boston Center
Wed 10:20:21 AM 43.7097 -75.9964 190° South 185 213 8,200 1,475 Climbing Boston Center
Wed 10:20:55 AM 43.6728 -75.9814 164° South 194 223 9,100 1,377 Climbing Boston Center
Wed 10:21:22 AM 43.6581 -75.9875 197° South 188 216 9,600 900 Climbing Boston Center
Wed 10:21:55 AM 43.6228 -75.9728 163° South 182 209 10,000 400 Climbing Boston Center
Wed 10:22:22 AM 43.6064 -75.9831 204° Southwest 188 216 10,000 200 Level Boston Center
Wed 10:22:55 AM 43.5656 -75.9678 165° South 217 250 10,200 563 Climbing Boston Center
Wed 10:23:26 AM 43.5447 -75.9781 200° South 206 237 10,600 968 Climbing Boston Center
Wed 10:23:57 AM 43.5044 -75.9614 163° South 209 241 11,200 984 Climbing Boston Center
Wed 10:24:27 AM 43.4906 -75.9717 208° Southwest 198 228 11,600 700 Climbing Boston Center
Wed 10:24:57 AM 43.4583 -75.9542 158° South 163 188 11,900 400 Climbing Boston Center
Wed 10:25:27 AM 43.4453 -75.9647 210° Southwest 171 197 12,000 90 Climbing Boston Center
Wed 10:26:04 AM 43.4039 -75.9472 163° South 175 201 12,000  Level Boston Center
Wed 10:26:29 AM 43.3953 -75.9594 226° Southwest 175 201 12,000  Level Boston Center
Wed 10:27:05 AM 43.3514 -75.9408 163° South 192 221 12,000  Level Boston Center
Wed 10:27:32 AM 43.3419 -75.9542 226° Southwest 188 216 12,000  Level Boston Center
Wed 10:28:05 AM 43.2989 -75.9344 162° South 196 226 12,000  Level Boston Center
Wed 10:28:33 AM 43.2789 -75.9486 207° Southwest 189 217 12,000  Level Boston Center
Wed 10:29:33 AM 43.2308 -75.9414 174° South 177 204 12,000  Level Boston Center
Wed 10:30:36 AM 43.1808 -75.9333 173° South 178 205 12,000  Level Boston Center
Wed 10:31:37 AM 43.1303 -75.9269 175° South 179 206 12,000  Level Boston Center
Wed 10:32:37 AM 43.0775 -75.9197 174° South 189 217 12,000  Level Boston Center
Wed 10:33:41 AM 43.0183 -75.9094 173° South 209 241 12,000  Level Boston Center
Wed 10:34:41 AM 42.9586 -75.8989 173° South 214 246 12,000  Level Boston Center
Wed 10:35:42 AM 42.8994 -75.8939 176° South 214 246 12,000  Level Boston Center
Wed 10:36:43 AM 42.8272 -75.8872 176° South 216 249 12,000 96 Level Boston Center
Wed 10:37:47 AM 42.7675 -75.8808 176° South 216 249 12,200 242 Climbing Boston Center
Wed 10:38:47 AM 42.7114 -75.8756 176° South 207 238 12,500 149 Climbing Boston Center
Wed 10:39:48 AM 42.6536 -75.8694 176° South 207 238 12,500  Level Boston Center
Wed 10:40:51 AM 42.5925 -75.8628 175° South 214 246 12,500  Level Boston Center
Wed 10:41:52 AM 42.5350 -75.8567 176° South 216 249 12,500  Level Boston Center
Wed 10:42:52 AM 42.4739 -75.8511 176° South 216 249 12,500  Level Boston Center
Wed 10:43:56 AM 42.4022 -75.8456 177° South 216 249 12,500  Level Boston Center
Wed 10:44:57 AM 42.3414 -75.8403 176° South 217 250 12,500  Level Boston Center
Wed 10:45:57 AM 42.2806 -75.8361 177° South 218 251 12,500  Level Boston Center
Wed 10:47:01 AM 42.2197 -75.8317 177° South 218 251 12,500 -48 Level Boston Center
Wed 10:48:01 AM 42.1583 -75.8272 177° South 219 252 12,400  Descending Boston Center
Wed 10:48:40 AM 42.1094 -75.8250 178° South 221 254 12,500 60 Climbing New York Center
Wed 10:49:41 AM 42.0531 -75.8261 181° South 221 254 12,500  Level New York Center
Wed 10:50:42 AM 41.9889 -75.8214 177° South 221 254 12,500  Level New York Center
Wed 10:51:43 AM 41.9267 -75.8139 175° South 221 254 12,500  Level New York Center
Wed 10:52:42 AM 41.8664 -75.8092 177° South 216 249 12,500  Level New York Center
Wed 10:53:40 AM 41.8111 -75.7911 166° South 222 255 12,500  Level New York Center
Wed 10:54:41 AM 41.7536 -75.7672 163° South 229 264 12,500  Level New York Center
Wed 10:55:41 AM 41.6839 -75.7453 167° South 229 264 12,500  Level New York Center
Wed 10:56:40 AM 41.6236 -75.7408 177° South 229 264 12,500  Level New York Center
Wed 10:57:41 AM 41.5614 -75.7364 177° South 229 264 12,500  Level New York Center
Wed 10:58:42 AM 41.5053 -75.7322 177° South 224 258 12,500  Level New York Center
Wed 10:59:40 AM 41.4428 -75.7303 179° South 224 258 12,500  Level New York Center
Wed 11:00:42 AM 41.3828 -75.7258 177° South 224 258 12,500  Level New York Center
Wed 11:01:40 AM 41.3225 -75.7214 177° South 224 258 12,500  Level New York Center
Wed 11:02:41 AM 41.2600 -75.7197 179° South 224 258 12,500  Level New York Center
Wed 11:03:42 AM 41.1936 -75.7147 177° South 224 258 12,500  Level New York Center
Wed 11:04:40 AM 41.1314 -75.7103 177° South 224 258 12,500  Level New York Center
Wed 11:05:40 AM 41.0689 -75.7056 177° South 229 264 12,500  Level New York Center
Wed 11:06:42 AM 41.0131 -75.6989 175° South 229 264 12,500  Level New York Center
Wed 11:07:41 AM 40.9422 -75.6964 178° South 229 264 12,500  Level New York Center
Wed 11:08:40 AM 40.8800 -75.6892 175° South 229 264 12,500  Level New York Center
Wed 11:09:41 AM 40.8261 -75.6853 177° South 229 264 12,500  Level New York Center
Wed 11:10:42 AM 40.7556 -75.6775 175° South 229 264 12,500  Level New York Center
Wed 11:11:40 AM 40.6931 -75.6731 177° South 229 264 12,500  Level New York Center
Wed 11:12:40 AM 40.6308 -75.6686 177° South 229 264 12,500  Level New York Center
Wed 11:13:42 AM 40.5747 -75.6672 179° South 234 269 12,500  Level New York Center
Wed 11:14:40 AM 40.5039 -75.6650 179° South 234 269 12,500  Level New York Center
Wed 11:15:40 AM 40.4417 -75.6606 177° South 234 269 12,500  Level New York Center
Wed 11:16:41 AM 40.3792 -75.6561 177° South 234 269 12,500  Level New York Center
Wed 11:17:42 AM 40.3208 -75.6547 179° South 234 269 12,500 -454 Level New York Center
Wed 11:18:40 AM 40.2564 -75.6531 179° South 234 269 11,600 -1,311 Descending New York Center
Wed 11:19:41 AM 40.1794 -75.6475 177° South 239 275 9,900 -1,493 Descending New York Center
Wed 11:22:29 AM 40.0000 -75.6167 173° South 227 261 5,900 -1,507 Descending Philadelphia TRACON
Wed 11:23:24 AM 39.9333 -75.6000 169° South 220 253 4,300 -1,745 Descending Philadelphia TRACON

Login

Don't have an account? Register now (free) for customized features, flight alerts, and more!